Report METAR

 


LIBF - Foggia/Gino Lisa, Italy
Distance from station: NE 23km
Dati ricevuti: 13/04/2021 17:50
DATI Obsoleti
Parz. nuvoloso
Parz. nuvoloso
 Vento da ONO
Vento: ONO 9 km/h
Temperatura: 13°C
P.to Rugiada: 8°C
Umidità: 72%
Barometro: 1016 hPa
Nuvole: Parz. nuvoloso
Visibility: 10 km
Cloud details: Nubi sparse 762 m
Parz. nuvoloso 1219 m
2021/04/13 15:50 LIBF 131550Z 30005KT 270V330 9999 FEW025 SCT040 13/08 Q1016
LIRT - Trevico, Italy
Distance from station: SSO 28km
Dati ricevuti: 13/04/2021 15:55
DATI Obsoleti
Pioviggine, Nebbia
Pioviggine, Nebbia
 Vento da O
Vento: O 37 km/h
Temperatura: 5°C
Temperatura del Vento: -1°C
P.to Rugiada: 4°C
Umidità: 93%
Barometro: 1015 hPa
Summary: Pioviggine, Nebbia
Visibility: 0 km
2021/04/13 13:55 LIRT 131355Z 27020KT 0000 -RA FG VV/// 05/04 Q1015 RMK MON INVIS VAL INVIS VIS MIN 0000
LIBA - Amendola (it-Afb, Italy
Distance from station: NE 42km
Dati ricevuti: 13/04/2021 18:55
Pioviggine, Parz. nuvoloso
Pioviggine, Parz. nuvoloso
 Vento da NO
Vento: NO 19 km/h
Temperatura: 12°C
P.to Rugiada: 8°C
Umidità: 77%
Barometro: 1016 hPa
Summary: Pioviggine
Nuvole: Parz. nuvoloso
Visibility: 10 km
Cloud details: Parz. nuvoloso 914 m
Nubi sparse 1067 m
Parz. nuvoloso 1829 m
2021/04/13 16:55 LIBA 131655Z 31010KT 9999 -RA SCT030 FEW035CB SCT060 12/08 Q1016 RMK BKN VIS MIN 8000NE WIND THR11 32009KT WIND THR29 /////KT BLU
 
LIRI - Pontecagnano (af, Italy
Distance from station: SSO 81km
Dati ricevuti: 13/04/2021 16:50
DATI Obsoleti
Molto nuvoloso
Molto nuvoloso
 Vento da SSO
Vento: SSO 22 km/h
Temperatura: 13°C
P.to Rugiada: 9°C
Umidità: 77%
Barometro: 1018 hPa
Nuvole: Molto nuvoloso
Visibility: 7 km
Cloud details: Parz. nuvoloso 610 m
Molto nuvoloso 1524 m
2021/04/13 14:50 LIRI 131450Z 20012KT 7000 SCT020 BKN050 13/09 Q1018
LIRN - Naples/Capodichi, Italy
Distance from station: OSO 96km
Dati ricevuti: 13/04/2021 18:50
Parz. nuvoloso
Parz. nuvoloso
 Vento da O
Vento: O 15 km/h
Temperatura: 14°C
P.to Rugiada: 7°C
Umidità: 63%
Barometro: 1017 hPa
Nuvole: Parz. nuvoloso
Visibility: 10 km
Cloud details: Parz. nuvoloso 1219 m
2021/04/13 16:50 LIRN 131650Z 26008KT 230V290 9999 SCT040 14/07 Q1017 NOSIG
LIRM - Grazzanise (it-A, Italy
Distance from station: OSO 109km
Dati ricevuti: 13/04/2021 18:55
Parz. nuvoloso
Parz. nuvoloso
 Vento da Variabile
Vento: Variabile 0 km/h
Temperatura: 14°C
P.to Rugiada: 10°C
Umidità: 77%
Barometro: 1017 hPa
Nuvole: Parz. nuvoloso
Visibility: 10 km
Cloud details: Nubi sparse 762 m
Parz. nuvoloso 1067 m
2021/04/13 16:55 LIRM 131655Z /////KT 9999 FEW025 SCT035 14/10 Q1017
 
LIBD - Bari/Palese Macc, Italy
Distance from station: E 121km
Dati ricevuti: 13/04/2021 18:50
Molto nuvoloso
Molto nuvoloso
 Vento da NO
Vento: NO 13 km/h
Temperatura: 15°C
P.to Rugiada: 8°C
Umidità: 63%
Barometro: 1015 hPa
Nuvole: Molto nuvoloso
Visibility: 10 km
Cloud details: Molto nuvoloso 1372 m
2021/04/13 16:50 LIBD 131650Z 31007KT 280V010 9999 BKN045 15/08 Q1015
LIQC - Capri Island, Italy
Distance from station: SO 124km
Dati ricevuti: 13/04/2021 17:55
Parz. nuvoloso
Parz. nuvoloso
 Vento da O
Vento: O 22 km/h
Temperatura: 14°C
P.to Rugiada: 10°C
Umidità: 77%
Barometro: 1017 hPa
Nuvole: Parz. nuvoloso
Visibility: 10 km
Cloud details: Parz. nuvoloso 762 m
2021/04/13 15:55 LIQC 131555Z 26012KT 9999 SCT025 14/10 Q1017 RMK SCT QUK 3 QUL 2 W VIS MAR 20 KM VIS MIN 9999
LIBV - Gioia Del Colle, Italy
Distance from station: ESE 144km
Dati ricevuti: 13/04/2021 18:55
Nubi sparse
Nubi sparse
 Vento da O
Vento: O 15 km/h
Temperatura: 13°C
P.to Rugiada: 4°C
Umidità: 55%
Barometro: 1014 hPa
Nuvole: Nubi sparse
Visibility: 10 km
Cloud details: Nubi sparse 1372 m
2021/04/13 16:55 LIBV 131655Z 26008KT 9999 FEW045 13/04 Q1014 RMK SCT SCT080 VIS MIN 9999 WIND THR32 28010KT WIND THR14 27007KT BLU
 
LIBP - Pescara, Italy
Distance from station: NO 159km
Dati ricevuti: 13/04/2021 18:50
Pioviggine, Coperto
Pioviggine, Coperto
 Vento da NNO
Vento: NNO 11 km/h
Temperatura: 10°C
Temperatura del Vento: 8°C
P.to Rugiada: 7°C
Umidità: 82%
Barometro: 1018 hPa
Summary: Pioviggine
Nuvole: Coperto
Visibility: 10 km
Cloud details: Molto nuvoloso 671 m
Coperto 1524 m
2021/04/13 16:50 LIBP 131650Z AUTO 34006KT 290V020 9999 -RA BKN022/// OVC050/// 10/07 Q1018
LIBH - Marina Di Ginosa, Italy
Distance from station: SE 160km
Dati ricevuti: 13/04/2021 18:55
Nubi sparse
Nubi sparse
 Vento da O
Vento: O 19 km/h
Temperatura: 19°C
P.to Rugiada: 5°C
Umidità: 40%
Barometro: 1014 hPa
Nuvole: Nubi sparse
Visibility: 10 km
Cloud details: Nubi sparse 1067 m
2021/04/13 16:55 LIBH 131655Z 27010KT 230V320 9999 FEW035 19/05 Q1014 RMK FEW QUK 2 QUL 1 SW VIS MAR 20 KM VIS M
LIRH - Frosinone (it-Af, Italy
Distance from station: ONO 174km
Dati ricevuti: 13/04/2021 18:55
Parz. nuvoloso
Parz. nuvoloso
 Vento da ONO
Vento: ONO 9 km/h
Temperatura: 10°C
Temperatura del Vento: 9°C
P.to Rugiada: 6°C
Umidità: 76%
Barometro: 1017 hPa
Nuvole: Parz. nuvoloso
Visibility: 6 km
Cloud details: Parz. nuvoloso 762 m
Parz. nuvoloso 1067 m
2021/04/13 16:55 LIRH 131655Z 30005KT 6000 SCT025 SCT035 10/06 Q1017
 
LIBG - Grottaglie(Civ/A, Italy
Distance from station: ESE 192km
Dati ricevuti: 13/04/2021 18:50
Parz. nuvoloso
Parz. nuvoloso
 Vento da NNE
Vento: NNE 11 km/h
Temperatura: 15°C
P.to Rugiada: 9°C
Umidità: 68%
Barometro: 1015 hPa
Nuvole: Parz. nuvoloso
Visibility: 10 km
Cloud details: Parz. nuvoloso 1219 m
2021/04/13 16:50 LIBG 131650Z 02006KT 9999 SCT040 15/09 Q1015
LIRL - Latina (it-Afb), Italy
Distance from station: O 205km
Dati ricevuti: 13/04/2021 18:55
Parz. nuvoloso
Parz. nuvoloso
 Vento da ONO
Vento: ONO 11 km/h
Temperatura: 16°C
P.to Rugiada: 9°C
Umidità: 63%
Barometro: 1016 hPa
Nuvole: Parz. nuvoloso
Visibility: 10 km
Cloud details: Parz. nuvoloso 762 m
2021/04/13 16:55 LIRL 131655Z 29006KT 9999 SCT025 16/09 Q1016
LIBR - Brindisi/Casale, Italy
Distance from station: ESE 231km
Dati ricevuti: 13/04/2021 18:50
Parz. nuvoloso
Parz. nuvoloso
 Vento da NNO
Vento: NNO 15 km/h
Temperatura: 15°C
P.to Rugiada: 10°C
Umidità: 72%
Barometro: 1015 hPa
Nuvole: Parz. nuvoloso
Visibility: 10 km
Cloud details: Parz. nuvoloso 914 m
2021/04/13 16:50 LIBR 131650Z 34008KT 9999 SCT030 15/10 Q1015
 
LIRG - Guidonia (it-Afb, Italy
Distance from station: ONO 232km
Dati ricevuti: 13/04/2021 18:55
Molto nuvoloso
Molto nuvoloso
 Vento da SSO
Vento: SSO 4 km/h
Temperatura: 10°C
P.to Rugiada: 9°C
Umidità: 94%
Barometro: 1016 hPa
Nuvole: Molto nuvoloso
Visibility: 10 km
Cloud details: Molto nuvoloso 853 m
2021/04/13 16:55 LIRG 131655Z 21002KT 9999 BKN028 10/09 Q1016
LIBQ - Scuro Mountain, Italy
Distance from station: SSE 235km
Dati ricevuti: 13/04/2021 18:55
Nebbia
Nebbia
 Vento da O
Vento: O 22 km/h
Temperatura: 2°C
Temperatura del Vento: -3°C
P.to Rugiada: 2°C
Umidità: 100%
Barometro: 1015 hPa
Summary: Nebbia
Visibility: 0 km
2021/04/13 16:55 LIBQ 131655Z 26012KT 0000 FG VV/// 02/02 Q1015 RMK MON INVIS VAL INVIS VIS MIN 0000
LIRA - Ciampino(It-Afb/, Italy
Distance from station: ONO 236km
Dati ricevuti: 13/04/2021 18:50
Pioggia, Parz. nuvoloso
Pioggia, Parz. nuvoloso
 Vento da NE
Vento: NE 15 km/h, Raffica: 33 km/h
Temperatura: 12°C
P.to Rugiada: 9°C
Umidità: 82%
Barometro: 1017 hPa
Summary: Pioggia
Nuvole: Parz. nuvoloso
Visibility: 6 km
Cloud details: Parz. nuvoloso 914 m
Parz. nuvoloso 1219 m
2021/04/13 16:50 LIRA 131650Z 04008G18KT 010V070 6000 RA SCT030 SCT040 12/09 Q1017
 
LIQN - Rieti, Italy
Distance from station: ONO 243km
Dati ricevuti: 13/04/2021 18:50
Parz. nuvoloso
Parz. nuvoloso
 Vento da ONO
Vento: ONO 13 km/h
Temperatura: 10°C
Temperatura del Vento: 8°C
P.to Rugiada: 6°C
Umidità: 76%
Barometro: 1016 hPa
Nuvole: Parz. nuvoloso
Visibility: 10 km
Cloud details: Parz. nuvoloso 1067 m
2021/04/13 16:50 LIQN 131650Z 29007KT 9999 SCT035 10/06 Q1016
LIRE - Pratica Di Mare(, Italy
Distance from station: O 246km
Dati ricevuti: 13/04/2021 18:55
Nubi sparse
Nubi sparse
 Vento da ONO
Vento: ONO 22 km/h
Temperatura: 13°C
P.to Rugiada: 9°C
Umidità: 77%
Barometro: 1017 hPa
Nuvole: Nubi sparse
Visibility: 10 km
Cloud details: Nubi sparse 914 m
2021/04/13 16:55 LIRE 131655Z 29012KT 9999 FEW030 13/09 Q1017 RMK FEW VIS MIN 9999 WIND THR13 32007KT WIND THR31 /////KT BLU